sensor_id;sensor_type;location;lat;lon;timestamp;P1;durP1;ratioP1;P2;durP2;ratioP2
15669;SDS011;18524;45.190;5.732;2023-12-07T00:02:46;23.37;;;17.47;;
15669;SDS011;18524;45.190;5.732;2023-12-07T00:07:37;16.27;;;12.57;;
15669;SDS011;18524;45.190;5.732;2023-12-07T00:12:27;16.83;;;12.30;;
15669;SDS011;18524;45.190;5.732;2023-12-07T00:17:17;16.97;;;11.77;;
15669;SDS011;18524;45.190;5.732;2023-12-07T00:22:08;17.00;;;11.60;;
15669;SDS011;18524;45.190;5.732;2023-12-07T00:26:59;16.10;;;11.23;;
15669;SDS011;18524;45.190;5.732;2023-12-07T00:31:50;16.10;;;11.63;;
15669;SDS011;18524;45.190;5.732;2023-12-07T00:36:41;16.57;;;11.23;;
15669;SDS011;18524;45.190;5.732;2023-12-07T00:41:32;14.67;;;10.73;;
15669;SDS011;18524;45.190;5.732;2023-12-07T00:46:22;17.20;;;11.57;;
15669;SDS011;18524;45.190;5.732;2023-12-07T00:51:13;13.57;;;10.47;;
15669;SDS011;18524;45.190;5.732;2023-12-07T00:56:05;15.17;;;10.00;;
15669;SDS011;18524;45.190;5.732;2023-12-07T01:00:56;13.90;;;9.87;;
15669;SDS011;18524;45.190;5.732;2023-12-07T01:05:46;13.87;;;10.07;;
15669;SDS011;18524;45.190;5.732;2023-12-07T01:10:37;13.20;;;9.53;;
15669;SDS011;18524;45.190;5.732;2023-12-07T01:15:27;12.73;;;8.70;;
15669;SDS011;18524;45.190;5.732;2023-12-07T01:20:17;11.93;;;8.97;;
15669;SDS011;18524;45.190;5.732;2023-12-07T01:25:08;13.53;;;9.60;;
15669;SDS011;18524;45.190;5.732;2023-12-07T01:29:58;11.63;;;8.93;;
15669;SDS011;18524;45.190;5.732;2023-12-07T01:34:49;11.97;;;8.43;;
15669;SDS011;18524;45.190;5.732;2023-12-07T01:39:40;11.93;;;8.97;;
15669;SDS011;18524;45.190;5.732;2023-12-07T01:44:31;12.37;;;9.37;;
15669;SDS011;18524;45.190;5.732;2023-12-07T01:49:22;13.87;;;8.87;;
15669;SDS011;18524;45.190;5.732;2023-12-07T01:54:12;12.20;;;9.10;;
15669;SDS011;18524;45.190;5.732;2023-12-07T01:59:03;12.33;;;8.67;;
15669;SDS011;18524;45.190;5.732;2023-12-07T02:03:54;14.03;;;9.03;;
15669;SDS011;18524;45.190;5.732;2023-12-07T02:08:44;12.10;;;9.17;;
15669;SDS011;18524;45.190;5.732;2023-12-07T02:13:38;13.23;;;8.90;;
15669;SDS011;18524;45.190;5.732;2023-12-07T02:18:34;14.03;;;8.90;;
15669;SDS011;18524;45.190;5.732;2023-12-07T02:23:27;12.67;;;8.40;;
15669;SDS011;18524;45.190;5.732;2023-12-07T02:28:19;11.90;;;8.53;;
15669;SDS011;18524;45.190;5.732;2023-12-07T02:33:09;12.33;;;9.10;;
15669;SDS011;18524;45.190;5.732;2023-12-07T02:38:01;13.40;;;9.07;;
15669;SDS011;18524;45.190;5.732;2023-12-07T02:42:52;14.23;;;9.90;;
15669;SDS011;18524;45.190;5.732;2023-12-07T02:47:44;11.53;;;8.73;;
15669;SDS011;18524;45.190;5.732;2023-12-07T02:52:35;9.83;;;6.83;;
15669;SDS011;18524;45.190;5.732;2023-12-07T02:57:25;11.73;;;8.53;;
15669;SDS011;18524;45.190;5.732;2023-12-07T03:02:16;10.60;;;7.43;;
15669;SDS011;18524;45.190;5.732;2023-12-07T03:07:06;11.27;;;8.83;;
15669;SDS011;18524;45.190;5.732;2023-12-07T03:11:56;11.07;;;8.53;;
15669;SDS011;18524;45.190;5.732;2023-12-07T03:16:47;12.00;;;9.30;;
15669;SDS011;18524;45.190;5.732;2023-12-07T03:21:41;13.50;;;9.60;;
15669;SDS011;18524;45.190;5.732;2023-12-07T03:26:32;15.23;;;9.53;;
15669;SDS011;18524;45.190;5.732;2023-12-07T03:31:23;14.17;;;10.13;;
15669;SDS011;18524;45.190;5.732;2023-12-07T03:36:13;15.93;;;10.00;;
15669;SDS011;18524;45.190;5.732;2023-12-07T03:41:04;15.23;;;11.03;;
15669;SDS011;18524;45.190;5.732;2023-12-07T03:45:54;16.00;;;10.50;;
15669;SDS011;18524;45.190;5.732;2023-12-07T03:50:45;14.03;;;9.97;;
15669;SDS011;18524;45.190;5.732;2023-12-07T03:55:35;14.80;;;10.13;;
15669;SDS011;18524;45.190;5.732;2023-12-07T04:00:26;13.03;;;9.20;;
15669;SDS011;18524;45.190;5.732;2023-12-07T04:05:17;13.10;;;9.70;;
15669;SDS011;18524;45.190;5.732;2023-12-07T04:10:07;15.30;;;9.23;;
15669;SDS011;18524;45.190;5.732;2023-12-07T04:14:58;12.23;;;8.43;;
15669;SDS011;18524;45.190;5.732;2023-12-07T04:19:48;12.33;;;8.37;;
15669;SDS011;18524;45.190;5.732;2023-12-07T04:24:39;10.53;;;7.90;;
15669;SDS011;18524;45.190;5.732;2023-12-07T04:29:29;12.33;;;8.17;;
15669;SDS011;18524;45.190;5.732;2023-12-07T04:34:19;12.73;;;7.70;;
15669;SDS011;18524;45.190;5.732;2023-12-07T04:39:10;12.17;;;8.13;;
15669;SDS011;18524;45.190;5.732;2023-12-07T04:44:00;11.60;;;7.67;;
15669;SDS011;18524;45.190;5.732;2023-12-07T04:48:50;12.13;;;7.57;;
15669;SDS011;18524;45.190;5.732;2023-12-07T04:53:41;12.77;;;8.17;;
15669;SDS011;18524;45.190;5.732;2023-12-07T04:58:31;13.27;;;9.30;;
15669;SDS011;18524;45.190;5.732;2023-12-07T05:03:21;13.57;;;9.80;;
15669;SDS011;18524;45.190;5.732;2023-12-07T05:08:12;12.27;;;8.97;;
15669;SDS011;18524;45.190;5.732;2023-12-07T05:13:02;13.37;;;8.70;;
15669;SDS011;18524;45.190;5.732;2023-12-07T05:17:53;11.00;;;8.03;;
15669;SDS011;18524;45.190;5.732;2023-12-07T05:22:44;11.77;;;9.13;;
15669;SDS011;18524;45.190;5.732;2023-12-07T05:27:34;13.27;;;8.23;;
15669;SDS011;18524;45.190;5.732;2023-12-07T05:32:25;15.00;;;8.87;;
15669;SDS011;18524;45.190;5.732;2023-12-07T05:37:15;11.80;;;8.20;;
15669;SDS011;18524;45.190;5.732;2023-12-07T05:42:06;14.63;;;8.70;;
15669;SDS011;18524;45.190;5.732;2023-12-07T05:46:56;12.40;;;8.43;;
15669;SDS011;18524;45.190;5.732;2023-12-07T05:51:47;14.00;;;9.00;;
15669;SDS011;18524;45.190;5.732;2023-12-07T05:56:39;12.67;;;8.40;;
15669;SDS011;18524;45.190;5.732;2023-12-07T06:01:30;15.20;;;8.93;;
15669;SDS011;18524;45.190;5.732;2023-12-07T06:06:20;12.57;;;8.90;;
15669;SDS011;18524;45.190;5.732;2023-12-07T06:11:11;10.60;;;7.40;;
15669;SDS011;18524;45.190;5.732;2023-12-07T06:16:01;13.57;;;7.90;;
15669;SDS011;18524;45.190;5.732;2023-12-07T06:20:53;12.53;;;7.70;;
15669;SDS011;18524;45.190;5.732;2023-12-07T06:25:43;11.30;;;6.83;;
15669;SDS011;18524;45.190;5.732;2023-12-07T06:30:33;9.13;;;6.73;;
15669;SDS011;18524;45.190;5.732;2023-12-07T06:35:24;9.83;;;6.73;;
15669;SDS011;18524;45.190;5.732;2023-12-07T06:40:15;10.73;;;6.90;;
15669;SDS011;18524;45.190;5.732;2023-12-07T06:45:05;10.00;;;7.10;;
15669;SDS011;18524;45.190;5.732;2023-12-07T06:50:00;10.60;;;7.03;;
15669;SDS011;18524;45.190;5.732;2023-12-07T06:54:52;10.10;;;7.37;;
15669;SDS011;18524;45.190;5.732;2023-12-07T06:59:43;11.73;;;7.13;;
15669;SDS011;18524;45.190;5.732;2023-12-07T07:04:33;11.47;;;7.47;;
15669;SDS011;18524;45.190;5.732;2023-12-07T07:09:23;10.60;;;7.30;;
15669;SDS011;18524;45.190;5.732;2023-12-07T07:14:15;10.70;;;6.97;;
15669;SDS011;18524;45.190;5.732;2023-12-07T07:19:05;10.87;;;7.27;;
15669;SDS011;18524;45.190;5.732;2023-12-07T07:23:56;12.13;;;7.07;;
15669;SDS011;18524;45.190;5.732;2023-12-07T07:28:46;11.67;;;7.00;;
15669;SDS011;18524;45.190;5.732;2023-12-07T07:33:36;10.20;;;7.53;;
15669;SDS011;18524;45.190;5.732;2023-12-07T07:38:27;10.47;;;7.70;;
15669;SDS011;18524;45.190;5.732;2023-12-07T07:43:17;12.90;;;8.20;;
15669;SDS011;18524;45.190;5.732;2023-12-07T07:48:08;14.70;;;8.90;;
15669;SDS011;18524;45.190;5.732;2023-12-07T07:52:58;11.67;;;9.00;;
15669;SDS011;18524;45.190;5.732;2023-12-07T07:57:48;13.57;;;9.10;;
15669;SDS011;18524;45.190;5.732;2023-12-07T08:02:39;12.80;;;8.60;;
15669;SDS011;18524;45.190;5.732;2023-12-07T08:07:29;11.07;;;8.20;;
15669;SDS011;18524;45.190;5.732;2023-12-07T08:12:19;11.53;;;7.70;;
15669;SDS011;18524;45.190;5.732;2023-12-07T08:17:12;11.43;;;7.53;;
15669;SDS011;18524;45.190;5.732;2023-12-07T08:22:03;13.17;;;8.63;;
15669;SDS011;18524;45.190;5.732;2023-12-07T08:26:53;19.23;;;12.13;;
15669;SDS011;18524;45.190;5.732;2023-12-07T08:31:44;14.13;;;8.73;;
15669;SDS011;18524;45.190;5.732;2023-12-07T08:36:34;13.70;;;8.90;;
15669;SDS011;18524;45.190;5.732;2023-12-07T08:41:24;12.83;;;7.93;;
15669;SDS011;18524;45.190;5.732;2023-12-07T08:46:15;12.37;;;7.40;;
15669;SDS011;18524;45.190;5.732;2023-12-07T08:51:05;9.87;;;7.73;;
15669;SDS011;18524;45.190;5.732;2023-12-07T08:55:58;10.10;;;7.10;;
15669;SDS011;18524;45.190;5.732;2023-12-07T09:00:48;11.73;;;6.77;;
15669;SDS011;18524;45.190;5.732;2023-12-07T09:05:39;10.17;;;6.83;;
15669;SDS011;18524;45.190;5.732;2023-12-07T09:10:29;9.97;;;6.80;;
15669;SDS011;18524;45.190;5.732;2023-12-07T09:15:19;9.37;;;6.23;;
15669;SDS011;18524;45.190;5.732;2023-12-07T09:20:11;7.60;;;5.77;;
15669;SDS011;18524;45.190;5.732;2023-12-07T09:25:02;10.57;;;5.77;;
15669;SDS011;18524;45.190;5.732;2023-12-07T09:29:52;8.10;;;5.60;;
15669;SDS011;18524;45.190;5.732;2023-12-07T09:34:42;8.73;;;5.83;;
15669;SDS011;18524;45.190;5.732;2023-12-07T09:39:33;7.40;;;4.67;;
15669;SDS011;18524;45.190;5.732;2023-12-07T09:44:23;8.07;;;4.70;;
15669;SDS011;18524;45.190;5.732;2023-12-07T09:49:14;10.23;;;5.00;;
15669;SDS011;18524;45.190;5.732;2023-12-07T09:54:04;6.27;;;4.50;;
15669;SDS011;18524;45.190;5.732;2023-12-07T09:58:55;5.40;;;4.50;;
15669;SDS011;18524;45.190;5.732;2023-12-07T10:03:46;6.63;;;4.70;;
15669;SDS011;18524;45.190;5.732;2023-12-07T10:08:38;5.20;;;3.90;;
15669;SDS011;18524;45.190;5.732;2023-12-07T10:13:32;6.20;;;4.03;;
15669;SDS011;18524;45.190;5.732;2023-12-07T10:18:23;6.60;;;4.20;;
15669;SDS011;18524;45.190;5.732;2023-12-07T10:23:14;6.50;;;3.80;;
15669;SDS011;18524;45.190;5.732;2023-12-07T10:28:07;5.90;;;3.63;;
15669;SDS011;18524;45.190;5.732;2023-12-07T10:32:58;4.27;;;3.00;;
15669;SDS011;18524;45.190;5.732;2023-12-07T10:37:48;5.43;;;3.17;;
15669;SDS011;18524;45.190;5.732;2023-12-07T10:42:40;3.93;;;3.13;;
15669;SDS011;18524;45.190;5.732;2023-12-07T10:47:35;5.00;;;3.70;;
15669;SDS011;18524;45.190;5.732;2023-12-07T10:52:28;5.17;;;3.87;;
15669;SDS011;18524;45.190;5.732;2023-12-07T10:57:24;6.90;;;3.97;;
15669;SDS011;18524;45.190;5.732;2023-12-07T11:02:16;6.87;;;4.00;;
15669;SDS011;18524;45.190;5.732;2023-12-07T11:07:10;6.43;;;4.07;;
15669;SDS011;18524;45.190;5.732;2023-12-07T11:12:08;8.53;;;4.00;;
15669;SDS011;18524;45.190;5.732;2023-12-07T11:17:07;5.90;;;4.10;;
15669;SDS011;18524;45.190;5.732;2023-12-07T11:22:01;5.17;;;3.40;;
15669;SDS011;18524;45.190;5.732;2023-12-07T11:26:57;5.80;;;3.90;;
15669;SDS011;18524;45.190;5.732;2023-12-07T11:31:48;4.83;;;3.60;;
15669;SDS011;18524;45.190;5.732;2023-12-07T11:36:39;12.60;;;5.93;;
15669;SDS011;18524;45.190;5.732;2023-12-07T11:41:29;8.23;;;4.97;;
15669;SDS011;18524;45.190;5.732;2023-12-07T11:46:23;10.97;;;7.37;;
15669;SDS011;18524;45.190;5.732;2023-12-07T11:51:15;9.17;;;5.33;;
15669;SDS011;18524;45.190;5.732;2023-12-07T11:56:10;4.67;;;3.23;;
15669;SDS011;18524;45.190;5.732;2023-12-07T12:01:02;7.83;;;5.20;;
15669;SDS011;18524;45.190;5.732;2023-12-07T12:05:54;6.40;;;3.83;;
15669;SDS011;18524;45.190;5.732;2023-12-07T12:10:46;4.70;;;3.10;;
15669;SDS011;18524;45.190;5.732;2023-12-07T12:15:39;4.00;;;2.30;;
15669;SDS011;18524;45.190;5.732;2023-12-07T12:20:30;4.33;;;2.10;;
15669;SDS011;18524;45.190;5.732;2023-12-07T12:25:25;4.40;;;2.33;;
15669;SDS011;18524;45.190;5.732;2023-12-07T12:30:18;2.47;;;1.83;;
15669;SDS011;18524;45.190;5.732;2023-12-07T12:35:10;2.47;;;1.47;;
15669;SDS011;18524;45.190;5.732;2023-12-07T12:40:05;2.50;;;1.77;;
15669;SDS011;18524;45.190;5.732;2023-12-07T12:44:56;2.13;;;1.50;;
15669;SDS011;18524;45.190;5.732;2023-12-07T12:49:47;2.33;;;1.53;;
15669;SDS011;18524;45.190;5.732;2023-12-07T12:54:37;2.50;;;1.77;;
15669;SDS011;18524;45.190;5.732;2023-12-07T12:59:27;4.20;;;1.80;;
15669;SDS011;18524;45.190;5.732;2023-12-07T13:04:18;2.97;;;1.67;;
15669;SDS011;18524;45.190;5.732;2023-12-07T13:09:08;2.50;;;2.20;;
15669;SDS011;18524;45.190;5.732;2023-12-07T13:13:59;3.60;;;2.10;;
15669;SDS011;18524;45.190;5.732;2023-12-07T13:18:49;4.50;;;2.33;;
15669;SDS011;18524;45.190;5.732;2023-12-07T13:23:40;3.60;;;2.50;;
15669;SDS011;18524;45.190;5.732;2023-12-07T13:28:30;5.90;;;3.03;;
15669;SDS011;18524;45.190;5.732;2023-12-07T13:33:21;3.87;;;2.70;;
15669;SDS011;18524;45.190;5.732;2023-12-07T13:38:13;3.53;;;2.43;;
15669;SDS011;18524;45.190;5.732;2023-12-07T13:43:03;5.33;;;2.37;;
15669;SDS011;18524;45.190;5.732;2023-12-07T13:47:53;3.17;;;2.53;;
15669;SDS011;18524;45.190;5.732;2023-12-07T13:52:44;5.17;;;2.90;;
15669;SDS011;18524;45.190;5.732;2023-12-07T13:57:34;5.60;;;2.87;;
15669;SDS011;18524;45.190;5.732;2023-12-07T14:02:24;7.37;;;3.20;;
15669;SDS011;18524;45.190;5.732;2023-12-07T14:07:16;4.00;;;2.80;;
15669;SDS011;18524;45.190;5.732;2023-12-07T14:12:09;3.80;;;2.60;;
15669;SDS011;18524;45.190;5.732;2023-12-07T14:17:02;4.27;;;2.40;;
15669;SDS011;18524;45.190;5.732;2023-12-07T14:21:53;4.90;;;2.90;;
15669;SDS011;18524;45.190;5.732;2023-12-07T14:26:44;4.73;;;2.60;;
15669;SDS011;18524;45.190;5.732;2023-12-07T14:31:34;4.60;;;2.77;;
15669;SDS011;18524;45.190;5.732;2023-12-07T14:36:27;4.20;;;2.70;;
15669;SDS011;18524;45.190;5.732;2023-12-07T14:41:17;4.77;;;2.80;;
15669;SDS011;18524;45.190;5.732;2023-12-07T14:46:07;4.87;;;3.30;;
15669;SDS011;18524;45.190;5.732;2023-12-07T14:50:58;4.17;;;3.00;;
15669;SDS011;18524;45.190;5.732;2023-12-07T14:55:48;6.67;;;3.43;;
15669;SDS011;18524;45.190;5.732;2023-12-07T15:00:41;6.80;;;3.67;;
15669;SDS011;18524;45.190;5.732;2023-12-07T15:05:31;6.93;;;3.60;;
15669;SDS011;18524;45.190;5.732;2023-12-07T15:10:22;5.37;;;3.77;;
15669;SDS011;18524;45.190;5.732;2023-12-07T15:15:12;4.60;;;3.37;;
15669;SDS011;18524;45.190;5.732;2023-12-07T15:20:03;7.37;;;3.60;;
15669;SDS011;18524;45.190;5.732;2023-12-07T15:24:54;4.40;;;3.20;;
15669;SDS011;18524;45.190;5.732;2023-12-07T15:29:44;6.27;;;3.40;;
15669;SDS011;18524;45.190;5.732;2023-12-07T15:34:35;5.03;;;3.30;;
15669;SDS011;18524;45.190;5.732;2023-12-07T15:39:25;7.83;;;3.60;;
15669;SDS011;18524;45.190;5.732;2023-12-07T15:44:15;6.47;;;3.60;;
15669;SDS011;18524;45.190;5.732;2023-12-07T15:49:06;8.57;;;3.73;;
15669;SDS011;18524;45.190;5.732;2023-12-07T15:53:56;8.27;;;4.33;;
15669;SDS011;18524;45.190;5.732;2023-12-07T15:58:46;6.67;;;4.33;;
15669;SDS011;18524;45.190;5.732;2023-12-07T16:03:37;9.37;;;4.93;;
15669;SDS011;18524;45.190;5.732;2023-12-07T16:08:27;8.77;;;5.40;;
15669;SDS011;18524;45.190;5.732;2023-12-07T16:13:17;7.93;;;4.90;;
15669;SDS011;18524;45.190;5.732;2023-12-07T16:18:08;8.57;;;4.97;;
15669;SDS011;18524;45.190;5.732;2023-12-07T16:22:58;7.23;;;4.60;;
15669;SDS011;18524;45.190;5.732;2023-12-07T16:27:48;7.43;;;4.50;;
15669;SDS011;18524;45.190;5.732;2023-12-07T16:32:39;6.83;;;4.60;;
15669;SDS011;18524;45.190;5.732;2023-12-07T16:37:31;7.70;;;4.80;;
15669;SDS011;18524;45.190;5.732;2023-12-07T16:42:22;8.27;;;4.97;;
15669;SDS011;18524;45.190;5.732;2023-12-07T16:47:13;8.13;;;5.77;;
15669;SDS011;18524;45.190;5.732;2023-12-07T16:52:04;7.43;;;5.37;;
15669;SDS011;18524;45.190;5.732;2023-12-07T16:56:55;10.10;;;5.40;;
15669;SDS011;18524;45.190;5.732;2023-12-07T17:01:45;8.47;;;5.20;;
15669;SDS011;18524;45.190;5.732;2023-12-07T17:06:36;11.40;;;5.60;;
15669;SDS011;18524;45.190;5.732;2023-12-07T17:11:26;10.63;;;5.60;;
15669;SDS011;18524;45.190;5.732;2023-12-07T17:16:17;10.83;;;5.43;;
15669;SDS011;18524;45.190;5.732;2023-12-07T17:21:07;9.77;;;5.90;;
15669;SDS011;18524;45.190;5.732;2023-12-07T17:25:57;8.93;;;6.23;;
15669;SDS011;18524;45.190;5.732;2023-12-07T17:30:48;10.20;;;6.37;;
15669;SDS011;18524;45.190;5.732;2023-12-07T17:35:38;10.43;;;6.57;;
15669;SDS011;18524;45.190;5.732;2023-12-07T17:40:29;13.77;;;6.60;;
15669;SDS011;18524;45.190;5.732;2023-12-07T17:45:19;11.63;;;7.07;;
15669;SDS011;18524;45.190;5.732;2023-12-07T17:50:09;7.87;;;6.07;;
15669;SDS011;18524;45.190;5.732;2023-12-07T17:55:00;12.33;;;6.80;;
15669;SDS011;18524;45.190;5.732;2023-12-07T17:59:50;9.50;;;6.73;;
15669;SDS011;18524;45.190;5.732;2023-12-07T18:04:40;8.80;;;7.13;;
15669;SDS011;18524;45.190;5.732;2023-12-07T18:09:31;11.33;;;7.37;;
15669;SDS011;18524;45.190;5.732;2023-12-07T18:14:21;12.57;;;8.43;;
15669;SDS011;18524;45.190;5.732;2023-12-07T18:19:12;11.33;;;7.90;;
15669;SDS011;18524;45.190;5.732;2023-12-07T18:24:02;13.40;;;8.73;;
15669;SDS011;18524;45.190;5.732;2023-12-07T18:28:53;14.77;;;8.87;;
15669;SDS011;18524;45.190;5.732;2023-12-07T18:33:43;12.33;;;8.63;;
15669;SDS011;18524;45.190;5.732;2023-12-07T18:38:35;15.43;;;11.20;;
15669;SDS011;18524;45.190;5.732;2023-12-07T18:43:25;14.53;;;9.47;;
15669;SDS011;18524;45.190;5.732;2023-12-07T18:48:15;13.43;;;9.20;;
15669;SDS011;18524;45.190;5.732;2023-12-07T18:53:06;21.77;;;11.70;;
15669;SDS011;18524;45.190;5.732;2023-12-07T18:57:56;18.77;;;10.03;;
15669;SDS011;18524;45.190;5.732;2023-12-07T19:02:47;15.47;;;9.80;;
15669;SDS011;18524;45.190;5.732;2023-12-07T19:07:37;15.03;;;9.53;;
15669;SDS011;18524;45.190;5.732;2023-12-07T19:12:28;19.30;;;11.00;;
15669;SDS011;18524;45.190;5.732;2023-12-07T19:17:18;16.30;;;10.17;;
15669;SDS011;18524;45.190;5.732;2023-12-07T19:22:09;17.53;;;11.27;;
15669;SDS011;18524;45.190;5.732;2023-12-07T19:26:59;16.03;;;10.40;;
15669;SDS011;18524;45.190;5.732;2023-12-07T19:31:49;15.93;;;10.10;;
15669;SDS011;18524;45.190;5.732;2023-12-07T19:36:41;22.80;;;12.53;;
15669;SDS011;18524;45.190;5.732;2023-12-07T19:41:32;16.20;;;12.27;;
15669;SDS011;18524;45.190;5.732;2023-12-07T19:46:23;49.13;;;22.30;;
15669;SDS011;18524;45.190;5.732;2023-12-07T19:51:17;37.73;;;21.37;;
15669;SDS011;18524;45.190;5.732;2023-12-07T19:56:08;21.43;;;12.83;;
15669;SDS011;18524;45.190;5.732;2023-12-07T20:00:59;14.23;;;10.17;;
15669;SDS011;18524;45.190;5.732;2023-12-07T20:05:49;14.63;;;10.20;;
15669;SDS011;18524;45.190;5.732;2023-12-07T20:10:39;13.43;;;9.47;;
15669;SDS011;18524;45.190;5.732;2023-12-07T20:15:30;12.40;;;9.33;;
15669;SDS011;18524;45.190;5.732;2023-12-07T20:20:20;12.27;;;8.83;;
15669;SDS011;18524;45.190;5.732;2023-12-07T20:25:11;19.13;;;11.00;;
15669;SDS011;18524;45.190;5.732;2023-12-07T20:30:01;18.17;;;12.63;;
15669;SDS011;18524;45.190;5.732;2023-12-07T20:34:51;17.17;;;11.63;;
15669;SDS011;18524;45.190;5.732;2023-12-07T20:39:42;17.30;;;11.83;;
15669;SDS011;18524;45.190;5.732;2023-12-07T20:44:32;14.40;;;10.17;;
15669;SDS011;18524;45.190;5.732;2023-12-07T20:49:22;14.93;;;10.97;;
15669;SDS011;18524;45.190;5.732;2023-12-07T20:54:13;14.00;;;9.70;;
15669;SDS011;18524;45.190;5.732;2023-12-07T20:59:03;12.53;;;9.57;;
15669;SDS011;18524;45.190;5.732;2023-12-07T21:03:53;12.60;;;9.20;;
15669;SDS011;18524;45.190;5.732;2023-12-07T21:08:44;13.87;;;9.37;;
15669;SDS011;18524;45.190;5.732;2023-12-07T21:13:34;14.33;;;10.07;;
15669;SDS011;18524;45.190;5.732;2023-12-07T21:18:24;15.13;;;9.83;;
15669;SDS011;18524;45.190;5.732;2023-12-07T21:23:15;18.27;;;11.70;;
15669;SDS011;18524;45.190;5.732;2023-12-07T21:28:05;14.83;;;11.07;;
15669;SDS011;18524;45.190;5.732;2023-12-07T21:32:55;14.77;;;10.33;;
15669;SDS011;18524;45.190;5.732;2023-12-07T21:37:46;13.27;;;10.20;;
15669;SDS011;18524;45.190;5.732;2023-12-07T21:42:36;13.60;;;10.17;;
15669;SDS011;18524;45.190;5.732;2023-12-07T21:47:26;13.40;;;9.73;;
15669;SDS011;18524;45.190;5.732;2023-12-07T21:52:17;13.87;;;10.60;;
15669;SDS011;18524;45.190;5.732;2023-12-07T21:57:07;14.20;;;10.30;;
15669;SDS011;18524;45.190;5.732;2023-12-07T22:01:58;14.77;;;10.47;;
15669;SDS011;18524;45.190;5.732;2023-12-07T22:06:48;15.60;;;10.87;;
15669;SDS011;18524;45.190;5.732;2023-12-07T22:11:42;21.17;;;11.97;;
15669;SDS011;18524;45.190;5.732;2023-12-07T22:16:33;15.37;;;10.40;;
15669;SDS011;18524;45.190;5.732;2023-12-07T22:21:29;16.33;;;10.70;;
15669;SDS011;18524;45.190;5.732;2023-12-07T22:26:19;14.00;;;10.43;;
15669;SDS011;18524;45.190;5.732;2023-12-07T22:31:12;15.47;;;10.40;;
15669;SDS011;18524;45.190;5.732;2023-12-07T22:36:02;14.50;;;10.00;;
15669;SDS011;18524;45.190;5.732;2023-12-07T22:40:53;17.03;;;10.57;;
15669;SDS011;18524;45.190;5.732;2023-12-07T22:45:43;12.90;;;9.73;;
15669;SDS011;18524;45.190;5.732;2023-12-07T22:50:33;15.07;;;11.00;;
15669;SDS011;18524;45.190;5.732;2023-12-07T22:55:24;15.23;;;11.00;;
15669;SDS011;18524;45.190;5.732;2023-12-07T23:00:14;17.40;;;12.20;;
15669;SDS011;18524;45.190;5.732;2023-12-07T23:05:11;17.70;;;12.23;;
15669;SDS011;18524;45.190;5.732;2023-12-07T23:10:01;17.33;;;12.47;;
15669;SDS011;18524;45.190;5.732;2023-12-07T23:14:52;18.33;;;11.90;;
15669;SDS011;18524;45.190;5.732;2023-12-07T23:19:42;19.17;;;12.17;;
15669;SDS011;18524;45.190;5.732;2023-12-07T23:24:33;20.27;;;12.73;;
15669;SDS011;18524;45.190;5.732;2023-12-07T23:29:23;17.63;;;12.30;;
15669;SDS011;18524;45.190;5.732;2023-12-07T23:34:13;14.40;;;10.83;;
15669;SDS011;18524;45.190;5.732;2023-12-07T23:39:03;13.87;;;10.37;;
15669;SDS011;18524;45.190;5.732;2023-12-07T23:43:54;17.30;;;12.73;;
15669;SDS011;18524;45.190;5.732;2023-12-07T23:48:45;18.17;;;12.50;;
15669;SDS011;18524;45.190;5.732;2023-12-07T23:53:35;18.67;;;12.77;;
15669;SDS011;18524;45.190;5.732;2023-12-07T23:58:25;17.60;;;12.50;;
